Time;durP1;ratioP1;P1;durP2;ratioP2;P2;SDS_P1;SDS_P2;PMS_P1;PMS_P2;Temp;Humidity;BMP_temperature;BMP_pressure;BME280_temperature;BME280_humidity;BME280_pressure;Samples;Min_cycle;Max_cycle;Signal;HPM_P1;HPM_P2
2024/04/21 00:01:44;;;;;;;4.67;1.70;;;6.10;99.90;;;;;;5453481;26;20510;-63
2024/04/21 00:04:13;;;;;;;5.20;1.60;;;6.10;99.90;;;;;;5455033;26;20737;-64
2024/04/21 00:06:43;;;;;;;3.80;1.67;;;6.10;99.90;;;;;;5453641;26;20444;-64
2024/04/21 00:09:11;;;;;;;4.37;1.83;;;6.00;99.90;;;;;;5453518;26;20487;-64
2024/04/21 00:11:41;;;;;;;3.27;1.67;;;6.00;99.90;;;;;;5453141;26;20464;-64
2024/04/21 00:14:09;;;;;;;6.70;2.83;;;6.00;99.90;;;;;;5454289;26;20467;-64
2024/04/21 00:16:39;;;;;;;3.90;1.43;;;6.00;99.90;;;;;;5453057;26;20495;-65
2024/04/21 00:19:09;;;;;;;5.17;1.67;;;5.90;99.90;;;;;;5454100;26;20443;-64
2024/04/21 00:21:39;;;;;;;3.80;1.70;;;5.90;99.90;;;;;;5452981;26;20565;-64
2024/04/21 00:24:06;;;;;;;4.07;1.73;;;5.80;99.90;;;;;;5453178;26;20556;-64
2024/04/21 00:26:36;;;;;;;5.23;2.00;;;5.80;99.90;;;;;;5453120;26;20843;-63
2024/04/21 00:29:05;;;;;;;5.83;2.07;;;5.70;99.90;;;;;;5421267;26;20967;-63
2024/04/21 00:31:35;;;;;;;4.53;1.90;;;5.60;99.90;;;;;;5452881;26;20452;-64
2024/04/21 00:34:03;;;;;;;7.20;2.10;;;5.70;99.90;;;;;;5453052;26;20783;-64
2024/04/21 00:36:35;;;;;;;4.00;1.73;;;5.60;99.90;;;;;;5453429;26;20441;-63
2024/04/21 00:39:03;;;;;;;6.13;2.30;;;5.60;99.90;;;;;;5421069;26;20442;-63
2024/04/21 00:41:33;;;;;;;5.00;2.20;;;5.60;99.90;;;;;;5453289;26;20456;-63
2024/04/21 00:44:00;;;;;;;7.20;2.00;;;5.50;99.90;;;;;;5452845;26;20584;-63
2024/04/21 00:46:30;;;;;;;5.57;3.00;;;5.50;99.90;;;;;;5453444;26;20437;-64
2024/04/21 00:48:58;;;;;;;8.90;1.90;;;5.50;99.90;;;;;;5421523;26;21084;-63
2024/04/21 00:51:28;;;;;;;5.90;1.80;;;5.40;99.90;;;;;;5453049;26;20499;-63
2024/04/21 00:53:58;;;;;;;5.03;2.00;;;5.40;99.90;;;;;;5457944;26;20390;-64
2024/04/21 00:56:29;;;;;;;4.40;2.03;;;5.40;99.90;;;;;;5456342;26;20511;-63
2024/04/21 00:58:57;;;;;;;5.40;2.10;;;5.30;99.90;;;;;;5457465;26;20390;-63
2024/04/21 01:01:27;;;;;;;4.37;1.90;;;5.30;99.90;;;;;;5456292;26;20447;-63
2024/04/21 01:03:54;;;;;;;4.40;1.60;;;5.30;99.90;;;;;;5457034;26;20435;-63
2024/04/21 01:06:25;;;;;;;4.20;1.77;;;5.30;99.90;;;;;;5456531;26;20440;-64
2024/04/21 01:08:52;;;;;;;3.20;1.50;;;5.30;99.90;;;;;;5424417;26;20497;-64
2024/04/21 01:11:25;;;;;;;2.50;1.20;;;5.30;99.90;;;;;;5456485;26;20457;-64
2024/04/21 01:13:52;;;;;;;4.10;1.47;;;5.30;99.90;;;;;;5457007;26;20955;-63
2024/04/21 01:16:22;;;;;;;6.43;1.37;;;5.30;99.90;;;;;;5456344;26;20477;-63
2024/04/21 01:18:49;;;;;;;5.83;2.03;;;5.20;99.90;;;;;;5424901;26;20892;-63
2024/04/21 01:21:20;;;;;;;3.63;1.47;;;5.20;99.90;;;;;;5424570;26;20457;-63
2024/04/21 01:23:50;;;;;;;3.77;1.23;;;5.10;99.90;;;;;;5457217;26;20397;-63
2024/04/21 01:26:20;;;;;;;3.80;1.73;;;5.10;99.90;;;;;;5456381;26;20950;-62
2024/04/21 01:28:48;;;;;;;7.93;1.90;;;5.00;99.90;;;;;;5456131;26;20555;-63
2024/04/21 01:31:18;;;;;;;5.40;1.47;;;5.00;99.90;;;;;;5456455;26;20844;-63
2024/04/21 01:33:45;;;;;;;4.07;1.30;;;5.00;99.90;;;;;;5458874;26;20432;-63
2024/04/21 01:36:15;;;;;;;3.23;1.30;;;5.00;99.90;;;;;;5456887;26;20489;-63
2024/04/21 01:38:43;;;;;;;2.40;1.10;;;5.00;99.90;;;;;;5457484;26;20522;-63
2024/04/21 01:41:15;;;;;;;3.87;1.77;;;5.00;99.90;;;;;;5425087;26;20810;-64
2024/04/21 01:43:43;;;;;;;4.60;1.60;;;4.90;99.90;;;;;;5424891;26;20958;-64
2024/04/21 01:46:13;;;;;;;4.60;1.50;;;4.90;99.90;;;;;;5456581;26;20771;-64
2024/04/21 01:48:40;;;;;;;3.67;1.50;;;4.90;99.90;;;;;;5456809;26;20443;-63
2024/04/21 01:51:10;;;;;;;6.80;2.30;;;4.90;99.90;;;;;;5456603;26;20462;-63
2024/04/21 01:53:38;;;;;;;2.70;1.90;;;4.90;99.90;;;;;;5456769;26;20782;-63
2024/04/21 01:56:08;;;;;;;3.87;2.40;;;4.90;99.90;;;;;;5455984;26;20457;-63
2024/04/21 01:58:38;;;;;;;5.43;2.50;;;4.90;99.90;;;;;;5424341;26;20447;-63
2024/04/21 02:01:08;;;;;;;3.67;2.20;;;5.00;99.90;;;;;;5456335;26;21058;-63
2024/04/21 02:03:35;;;;;;;5.20;2.43;;;5.00;99.90;;;;;;5456096;26;20439;-64
2024/04/21 02:06:06;;;;;;;3.53;2.90;;;5.00;99.90;;;;;;5456068;26;20490;-63
2024/04/21 02:08:33;;;;;;;3.37;3.07;;;5.00;99.90;;;;;;5424026;26;20454;-63
2024/04/21 02:11:03;;;;;;;3.50;3.20;;;5.00;99.90;;;;;;5455649;26;20458;-63
2024/04/21 02:13:30;;;;;;;7.47;3.70;;;5.00;99.90;;;;;;5424657;26;20491;-63
2024/04/21 02:16:04;;;;;;;7.00;2.50;;;5.00;99.90;;;;;;5455512;26;21038;-63
2024/04/21 02:18:31;;;;;;;4.50;2.50;;;5.00;99.90;;;;;;5456975;26;20437;-63
2024/04/21 02:21:01;;;;;;;3.70;1.90;;;5.00;99.90;;;;;;5455318;26;20453;-64
2024/04/21 02:23:29;;;;;;;3.60;2.03;;;5.00;99.90;;;;;;5454482;26;20433;-63
2024/04/21 02:25:59;;;;;;;5.70;2.57;;;5.00;99.90;;;;;;5454440;26;20547;-64
2024/04/21 02:28:27;;;;;;;5.00;2.23;;;5.00;99.90;;;;;;5422815;26;20977;-63
2024/04/21 02:30:58;;;;;;;4.00;2.50;;;5.00;99.90;;;;;;5454387;26;20449;-64
2024/04/21 02:33:28;;;;;;;3.23;2.20;;;5.00;99.90;;;;;;5455791;26;20390;-63
2024/04/21 02:35:58;;;;;;;4.70;2.50;;;5.00;99.90;;;;;;5422908;26;20522;-63
2024/04/21 02:38:25;;;;;;;5.17;2.37;;;5.00;99.90;;;;;;5454356;26;20493;-63
2024/04/21 02:40:55;;;;;;;4.67;2.80;;;5.00;99.90;;;;;;5454483;26;20505;-63
2024/04/21 02:43:23;;;;;;;3.63;1.87;;;5.00;99.90;;;;;;5423252;26;20453;-63
2024/04/21 02:45:53;;;;;;;5.07;2.67;;;4.90;99.90;;;;;;5454362;26;20514;-63
2024/04/21 02:48:20;;;;;;;5.10;2.57;;;4.90;99.90;;;;;;5454174;26;20437;-63
2024/04/21 02:50:53;;;;;;;3.97;2.40;;;4.90;99.90;;;;;;5453854;26;20510;-63
2024/04/21 02:53:21;;;;;;;3.57;2.00;;;4.90;99.90;;;;;;5455526;26;20719;-63
2024/04/21 02:55:51;;;;;;;4.00;2.40;;;4.90;99.90;;;;;;5454107;26;20437;-64
2024/04/21 02:58:18;;;;;;;2.87;2.30;;;4.90;99.90;;;;;;5454779;26;20507;-63
2024/04/21 03:00:48;;;;;;;4.10;3.00;;;4.90;99.90;;;;;;5454309;26;20453;-63
2024/04/21 03:03:16;;;;;;;3.03;2.73;;;4.80;99.90;;;;;;5422085;26;20461;-63
2024/04/21 03:05:55;;;;;;;3.80;3.00;;;4.80;99.90;;;;;;5453820;26;20493;-63
2024/04/21 03:08:25;;;;;;;3.67;2.57;;;4.80;99.90;;;;;;5455116;26;20488;-63
2024/04/21 03:10:55;;;;;;;2.87;2.20;;;4.80;99.90;;;;;;5453605;26;20557;-63
2024/04/21 03:13:22;;;;;;;3.17;2.77;;;4.70;99.90;;;;;;5453589;26;20434;-63
2024/04/21 03:15:52;;;;;;;4.70;2.97;;;4.70;99.90;;;;;;5452893;26;20524;-63
2024/04/21 03:18:20;;;;;;;3.17;2.60;;;4.70;99.90;;;;;;5421763;26;20490;-63
2024/04/21 03:20:57;;;;;;;3.70;2.47;;;4.70;99.90;;;;;;5453705;26;20449;-63
2024/04/21 03:23:27;;;;;;;4.47;2.50;;;4.70;99.90;;;;;;5453780;26;20486;-63
2024/04/21 03:25:57;;;;;;;3.57;2.10;;;4.70;99.90;;;;;;5453527;26;20497;-63
2024/04/21 03:28:25;;;;;;;4.03;2.70;;;4.60;99.90;;;;;;5453498;26;20445;-63
2024/04/21 03:30:58;;;;;;;3.17;2.10;;;4.60;99.90;;;;;;5453383;26;20509;-63
2024/04/21 03:33:27;;;;;;;2.83;2.10;;;4.60;99.90;;;;;;5421792;26;20440;-63
2024/04/21 03:36:05;;;;;;;4.87;2.30;;;4.60;99.90;;;;;;5453743;26;20804;-64
2024/04/21 03:38:39;;;;;;;4.37;2.50;;;4.60;99.90;;;;;;5454856;26;20439;-63
2024/04/21 03:41:09;;;;;;;5.00;2.13;;;4.50;99.90;;;;;;5454670;26;20449;-64
2024/04/21 03:43:39;;;;;;;2.80;2.07;;;4.50;99.90;;;;;;5454761;26;20438;-63
2024/04/21 03:46:09;;;;;;;3.50;2.50;;;4.40;99.90;;;;;;5453302;26;20441;-63
2024/04/21 03:48:37;;;;;;;4.17;2.53;;;4.40;99.90;;;;;;5453301;26;20803;-63
2024/04/21 03:51:07;;;;;;;3.97;2.80;;;4.30;99.90;;;;;;5453115;26;20453;-63
2024/04/21 03:53:36;;;;;;;4.97;2.57;;;4.30;99.90;;;;;;5453112;26;20829;-63
2024/04/21 03:56:07;;;;;;;3.30;1.90;;;4.30;99.90;;;;;;5453003;26;20445;-63
2024/04/21 03:58:34;;;;;;;3.43;2.37;;;4.20;99.90;;;;;;5453138;26;20486;-63
2024/04/21 04:01:04;;;;;;;3.63;2.37;;;4.20;99.90;;;;;;5452912;26;21063;-63
2024/04/21 04:03:32;;;;;;;3.47;2.10;;;4.10;99.90;;;;;;5454594;26;20488;-63
2024/04/21 04:06:02;;;;;;;3.47;2.60;;;4.10;99.90;;;;;;5452831;26;20575;-63
2024/04/21 04:08:30;;;;;;;3.53;2.40;;;4.10;99.90;;;;;;5454544;26;20421;-63
2024/04/21 04:11:02;;;;;;;3.20;2.73;;;4.10;99.90;;;;;;5452962;26;20502;-63
2024/04/21 04:13:29;;;;;;;3.50;2.37;;;4.10;99.90;;;;;;5454275;26;20394;-63
2024/04/21 04:15:59;;;;;;;3.13;2.37;;;4.10;99.90;;;;;;5452841;26;20548;-63
2024/04/21 04:18:27;;;;;;;4.00;2.33;;;4.10;99.90;;;;;;5452838;26;20551;-64
2024/04/21 04:20:57;;;;;;;5.13;2.30;;;4.10;99.90;;;;;;5420797;26;20465;-63
2024/04/21 04:23:24;;;;;;;4.73;2.70;;;4.10;99.90;;;;;;5452612;26;20438;-64
2024/04/21 04:25:54;;;;;;;3.17;2.70;;;4.10;99.90;;;;;;5452451;26;20547;-63
2024/04/21 04:28:24;;;;;;;5.30;2.83;;;4.10;99.90;;;;;;5455136;26;20560;-63
2024/04/21 04:30:54;;;;;;;3.50;2.20;;;4.00;99.90;;;;;;5424207;26;20985;-63
2024/04/21 04:33:22;;;;;;;3.57;2.50;;;4.00;99.90;;;;;;5456111;26;20558;-63
2024/04/21 04:35:52;;;;;;;4.87;2.60;;;4.00;99.90;;;;;;5456025;26;20620;-63
2024/04/21 04:38:19;;;;;;;3.30;2.30;;;4.00;99.90;;;;;;5424229;26;20453;-63
2024/04/21 04:40:49;;;;;;;3.90;2.40;;;4.00;99.90;;;;;;5455816;26;20461;-63
2024/04/21 04:43:17;;;;;;;2.77;1.93;;;4.00;99.90;;;;;;5456010;26;20490;-63
2024/04/21 04:45:49;;;;;;;3.20;2.30;;;3.90;99.90;;;;;;5455877;26;20445;-63
2024/04/21 04:48:17;;;;;;;4.63;2.80;;;3.90;99.90;;;;;;5456981;26;20405;-63
2024/04/21 04:50:47;;;;;;;3.60;2.57;;;4.00;99.90;;;;;;5455865;26;20491;-63
2024/04/21 04:53:14;;;;;;;3.73;2.80;;;4.00;99.90;;;;;;5455753;26;20445;-63
2024/04/21 04:55:46;;;;;;;3.67;3.00;;;3.90;99.90;;;;;;5455786;26;20438;-63
2024/04/21 04:58:13;;;;;;;3.67;2.60;;;3.90;99.90;;;;;;5456806;26;20482;-63
2024/04/21 05:00:43;;;;;;;5.23;2.83;;;3.90;99.90;;;;;;5455625;26;21008;-63
2024/04/21 05:03:13;;;;;;;3.47;2.43;;;3.90;99.90;;;;;;5455710;26;20894;-63
2024/04/21 05:05:43;;;;;;;4.53;2.90;;;3.90;99.90;;;;;;5455502;26;20433;-63
2024/04/21 05:08:10;;;;;;;3.70;3.30;;;3.80;99.90;;;;;;5423769;26;20449;-63
2024/04/21 05:10:40;;;;;;;3.33;2.97;;;3.80;99.90;;;;;;5455435;26;21057;-63
2024/04/21 05:13:08;;;;;;;4.97;3.43;;;3.90;99.90;;;;;;5455634;26;20433;-63
2024/04/21 05:15:38;;;;;;;4.43;3.43;;;3.80;99.90;;;;;;5455525;26;20450;-63
2024/04/21 05:18:05;;;;;;;4.10;3.60;;;3.80;99.90;;;;;;5455363;26;20834;-63
2024/04/21 05:20:38;;;;;;;6.10;3.87;;;3.90;99.90;;;;;;5455428;26;20453;-63
2024/04/21 05:23:05;;;;;;;4.20;3.60;;;3.90;99.90;;;;;;5456870;26;20743;-63
2024/04/21 05:25:35;;;;;;;6.80;4.60;;;3.90;99.90;;;;;;5455347;26;20551;-63
2024/04/21 05:28:03;;;;;;;4.47;3.97;;;3.90;99.90;;;;;;5423446;26;20490;-63
2024/04/21 05:30:33;;;;;;;5.10;3.70;;;3.90;99.90;;;;;;5455345;26;20990;-63
2024/04/21 05:33:00;;;;;;;5.87;4.67;;;3.90;99.90;;;;;;5455273;26;20547;-63
2024/04/21 05:35:30;;;;;;;5.90;4.30;;;3.90;99.90;;;;;;5455360;26;21077;-63
2024/04/21 05:38:00;;;;;;;7.37;5.70;;;4.00;99.90;;;;;;5454901;26;20437;-63
2024/04/21 05:40:30;;;;;;;7.77;5.23;;;3.90;99.90;;;;;;5423354;26;20477;-63
2024/04/21 05:42:57;;;;;;;6.00;5.40;;;4.00;99.90;;;;;;5423391;26;20452;-63
2024/04/21 05:45:27;;;;;;;7.87;6.30;;;4.00;99.90;;;;;;5455027;26;20445;-63
2024/04/21 05:47:56;;;;;;;6.00;5.43;;;4.00;99.90;;;;;;5455198;26;20437;-63
2024/04/21 05:50:26;;;;;;;8.00;6.77;;;4.00;99.90;;;;;;5455200;26;20532;-63
2024/04/21 05:52:53;;;;;;;7.37;6.67;;;4.10;99.90;;;;;;5455096;26;20490;-63
2024/04/21 05:55:26;;;;;;;9.03;7.73;;;4.10;99.90;;;;;;5455329;26;20490;-63
2024/04/21 05:57:53;;;;;;;8.40;7.30;;;4.10;99.90;;;;;;5423191;26;20460;-63
2024/04/21 06:00:24;;;;;;;7.70;7.00;;;4.20;99.90;;;;;;5454744;26;20521;-63
2024/04/21 06:02:51;;;;;;;7.73;7.03;;;4.30;99.90;;;;;;5456159;26;20394;-63
2024/04/21 06:05:21;;;;;;;7.17;6.47;;;4.40;99.90;;;;;;5454822;26;20437;-64
2024/04/21 06:07:49;;;;;;;18.37;8.73;;;4.60;99.90;;;;;;5423191;26;20449;-64
2024/04/21 06:10:19;;;;;;;9.30;8.20;;;4.70;99.90;;;;;;5454500;26;20506;-64
2024/04/21 06:12:53;;;;;;;8.37;7.57;;;4.90;99.90;;;;;;5456020;26;20404;-64
2024/04/21 06:15:23;;;;;;;7.87;7.17;;;5.00;99.90;;;;;;5456161;26;20395;-64
2024/04/21 06:17:51;;;;;;;8.33;7.53;;;5.00;99.90;;;;;;5422951;26;20904;-64
2024/04/21 06:20:21;;;;;;;7.90;7.13;;;5.00;99.90;;;;;;5454689;26;21046;-64
2024/04/21 06:22:49;;;;;;;8.27;7.47;;;5.10;99.90;;;;;;5456057;26;20486;-64
2024/04/21 06:25:19;;;;;;;8.63;7.80;;;5.30;99.90;;;;;;5454799;26;20970;-64
2024/04/21 06:27:49;;;;;;;8.70;8.00;;;5.50;99.90;;;;;;5455980;26;20434;-64
2024/04/21 06:30:19;;;;;;;9.47;8.57;;;5.70;99.90;;;;;;5455202;26;20799;-64
2024/04/21 06:32:46;;;;;;;7.90;7.20;;;5.90;99.90;;;;;;5454761;26;20527;-64
2024/04/21 06:35:16;;;;;;;8.50;7.70;;;6.10;99.90;;;;;;5422772;26;21104;-64
2024/04/21 06:37:44;;;;;;;7.47;6.87;;;6.10;99.90;;;;;;5456079;26;20433;-64
2024/04/21 06:40:14;;;;;;;7.00;6.40;;;6.30;99.90;;;;;;5454383;26;20988;-64
2024/04/21 06:42:43;;;;;;;7.40;6.80;;;6.40;99.90;;;;;;5422732;26;20454;-65
2024/04/21 06:45:16;;;;;;;8.13;7.53;;;6.50;99.90;;;;;;5454246;26;20436;-64
2024/04/21 06:47:43;;;;;;;7.67;7.07;;;6.60;99.90;;;;;;5455818;26;20412;-64
2024/04/21 06:50:14;;;;;;;6.93;6.33;;;6.80;99.90;;;;;;5453176;26;21030;-64
2024/04/21 06:52:41;;;;;;;7.80;7.10;;;7.00;99.90;;;;;;5454452;26;20555;-64
2024/04/21 06:55:11;;;;;;;6.80;6.20;;;7.10;99.90;;;;;;5454369;26;20436;-65
2024/04/21 06:57:38;;;;;;;7.43;6.73;;;7.20;99.90;;;;;;5454293;26;20490;-64
2024/04/21 07:00:09;;;;;;;7.20;6.60;;;7.40;99.90;;;;;;5454059;26;20551;-64
2024/04/21 07:02:39;;;;;;;7.97;6.50;;;7.60;99.90;;;;;;5455576;26;20452;-64
2024/04/21 07:05:09;;;;;;;6.20;5.70;;;7.70;99.90;;;;;;5453952;26;20453;-64
2024/04/21 07:07:36;;;;;;;6.60;6.00;;;7.70;99.90;;;;;;5453987;26;20433;-64
2024/04/21 07:10:07;;;;;;;6.57;5.97;;;7.70;99.90;;;;;;5453728;26;20561;-65
2024/04/21 07:12:34;;;;;;;5.90;5.40;;;7.70;99.90;;;;;;5422087;26;20450;-64
2024/04/21 07:15:04;;;;;;;6.23;5.70;;;7.70;99.90;;;;;;5453968;26;20973;-64
2024/04/21 07:17:32;;;;;;;6.27;5.77;;;7.80;99.90;;;;;;5453883;26;20555;-64
2024/04/21 07:20:05;;;;;;;6.33;5.73;;;7.90;99.90;;;;;;5453651;26;20498;-64
2024/04/21 07:22:32;;;;;;;6.13;5.63;;;8.10;99.90;;;;;;5454222;26;20482;-64
2024/04/21 07:25:03;;;;;;;6.60;6.10;;;8.20;99.90;;;;;;5421722;26;20449;-64
2024/04/21 07:27:45;;;;;;;6.57;5.97;;;8.20;99.90;;;;;;5455084;26;20394;-64
2024/04/21 07:30:15;;;;;;;5.67;5.17;;;8.10;99.90;;;;;;5453585;26;20488;-64
2024/04/21 07:32:43;;;;;;;6.70;6.10;;;8.00;99.90;;;;;;5453449;26;20628;-64
2024/04/21 07:35:15;;;;;;;6.37;5.87;;;8.00;99.90;;;;;;5453474;26;20490;-64
2024/04/21 07:37:43;;;;;;;6.40;5.80;;;8.00;99.90;;;;;;5421520;26;20498;-64
2024/04/21 07:40:16;;;;;;;6.53;5.93;;;8.00;99.90;;;;;;5453232;26;20463;-64
2024/04/21 07:42:44;;;;;;;6.00;5.50;;;7.90;99.90;;;;;;5455707;26;20794;-64
2024/04/21 07:45:14;;;;;;;5.70;5.23;;;7.90;99.90;;;;;;5453081;26;20449;-64
2024/04/21 07:47:41;;;;;;;5.83;5.30;;;8.00;99.90;;;;;;5454666;26;20421;-64
2024/04/21 07:50:14;;;;;;;5.83;5.23;;;8.20;99.90;;;;;;5453095;26;20457;-64
2024/04/21 07:52:42;;;;;;;5.83;5.33;;;8.30;99.90;;;;;;5454585;26;20960;-64
2024/04/21 07:55:12;;;;;;;5.50;5.00;;;8.40;99.90;;;;;;5453096;26;20490;-64
2024/04/21 07:57:42;;;;;;;5.33;4.83;;;8.60;99.90;;;;;;5453055;26;20787;-64
2024/04/21 08:00:13;;;;;;;5.30;4.80;;;8.70;99.90;;;;;;5453119;26;20498;-64
2024/04/21 08:02:40;;;;;;;4.97;4.53;;;8.70;99.90;;;;;;5457072;26;20429;-64
2024/04/21 08:05:10;;;;;;;5.33;4.83;;;8.90;99.90;;;;;;5456762;26;20449;-70
2024/04/21 08:07:40;;;;;;;5.07;4.67;;;8.90;99.90;;;;;;5456506;26;20437;-64
2024/04/21 08:10:10;;;;;;;4.37;3.73;;;9.00;99.90;;;;;;5456233;26;20854;-65
2024/04/21 08:12:38;;;;;;;4.67;4.00;;;9.10;99.90;;;;;;5457301;26;20410;-64
2024/04/21 08:15:09;;;;;;;4.00;3.60;;;9.10;99.90;;;;;;5456383;26;20445;-64
2024/04/21 08:17:36;;;;;;;5.67;3.93;;;9.20;99.90;;;;;;5424627;26;20551;-64
2024/04/21 08:20:09;;;;;;;3.70;3.40;;;9.30;99.90;;;;;;5456616;26;20458;-64
2024/04/21 08:22:36;;;;;;;3.93;3.53;;;9.40;99.90;;;;;;5457238;26;20841;-64
2024/04/21 08:25:09;;;;;;;4.30;3.90;;;9.50;99.90;;;;;;5456467;26;20489;-64
2024/04/21 08:27:36;;;;;;;4.57;4.17;;;9.60;99.90;;;;;;5457157;26;20817;-64
2024/04/21 08:30:07;;;;;;;4.63;3.90;;;9.60;99.90;;;;;;5456133;26;20497;-64
2024/04/21 08:32:35;;;;;;;4.53;4.13;;;9.70;99.90;;;;;;5457043;26;20482;-64
2024/04/21 08:35:06;;;;;;;4.50;3.80;;;9.80;99.90;;;;;;5424206;26;20457;-64
2024/04/21 08:37:33;;;;;;;5.17;3.47;;;9.80;99.90;;;;;;5457001;26;20405;-64
2024/04/21 08:40:03;;;;;;;3.63;3.33;;;9.90;99.90;;;;;;5455932;26;20555;-64
2024/04/21 08:42:34;;;;;;;3.27;2.97;;;9.90;99.90;;;;;;5456954;26;20398;-64
2024/04/21 08:45:05;;;;;;;4.00;3.60;;;10.00;99.90;;;;;;5424071;26;20811;-64
2024/04/21 08:47:33;;;;;;;6.07;3.50;;;10.00;99.90;;;;;;5457007;26;20402;-64
2024/04/21 08:50:04;;;;;;;3.50;3.10;;;10.00;99.90;;;;;;5424077;26;20469;-64
2024/04/21 08:52:33;;;;;;;3.73;3.40;;;10.10;99.90;;;;;;5456532;26;20430;-64
2024/04/21 08:55:03;;;;;;;3.70;3.40;;;10.10;99.90;;;;;;5455856;26;20860;-64
2024/04/21 08:57:33;;;;;;;3.30;3.00;;;10.20;99.90;;;;;;5457115;26;20394;-64
2024/04/21 09:00:05;;;;;;;3.30;2.90;;;10.20;99.90;;;;;;5455921;26;20453;-64
2024/04/21 09:02:34;;;;;;;3.00;2.70;;;10.20;99.90;;;;;;5456918;26;20398;-64
2024/04/21 09:05:05;;;;;;;3.20;2.90;;;10.20;99.90;;;;;;5423971;26;21010;-64
2024/04/21 09:07:35;;;;;;;3.10;2.80;;;10.30;99.90;;;;;;5456826;26;20410;-64
2024/04/21 09:10:07;;;;;;;2.97;2.67;;;10.30;99.80;;;;;;5455409;26;20466;-65
2024/04/21 09:12:39;;;;;;;3.00;2.70;;;10.30;99.60;;;;;;5456086;26;20434;-64
2024/04/21 09:15:11;;;;;;;4.20;2.97;;;10.30;99.30;;;;;;5456869;26;20409;-64
2024/04/21 09:17:39;;;;;;;2.93;2.10;;;10.30;98.90;;;;;;5423950;26;20485;-64
2024/04/21 09:20:09;;;;;;;6.33;2.60;;;10.30;98.50;;;;;;5455831;26;20845;-64
2024/04/21 09:22:37;;;;;;;2.50;2.30;;;10.30;98.20;;;;;;5424336;26;20555;-64
2024/04/21 09:25:08;;;;;;;2.93;2.50;;;10.40;97.80;;;;;;5423951;26;20445;-64
2024/04/21 09:27:38;;;;;;;2.80;2.40;;;10.40;97.60;;;;;;5456674;26;20395;-64
2024/04/21 09:30:09;;;;;;;3.30;2.63;;;10.40;97.40;;;;;;5455567;26;20498;-64
2024/04/21 09:32:36;;;;;;;4.13;3.13;;;10.40;97.30;;;;;;5456719;26;20402;-64
2024/04/21 09:35:09;;;;;;;3.50;2.90;;;10.50;97.30;;;;;;5423794;26;20823;-64
2024/04/21 09:37:42;;;;;;;3.20;2.90;;;10.50;97.40;;;;;;5423901;26;20966;-64
2024/04/21 09:40:14;;;;;;;5.10;2.93;;;10.50;97.30;;;;;;5456847;26;20977;-64
2024/04/21 09:42:47;;;;;;;3.40;2.87;;;10.50;97.30;;;;;;5456787;26;20394;-64
2024/04/21 09:45:19;;;;;;;5.50;3.00;;;10.40;97.20;;;;;;5457111;26;20394;-64
2024/04/21 09:47:47;;;;;;;3.27;2.77;;;10.30;97.10;;;;;;5457259;26;20927;-64
2024/04/21 09:50:18;;;;;;;3.70;3.40;;;10.30;97.10;;;;;;5456028;26;21091;-64
2024/04/21 09:52:49;;;;;;;3.40;3.10;;;10.20;97.10;;;;;;5455495;26;20437;-64
2024/04/21 09:55:21;;;;;;;3.43;3.13;;;10.20;97.00;;;;;;5456595;26;20404;-65
2024/04/21 09:57:58;;;;;;;3.10;2.70;;;10.20;96.90;;;;;;5456606;26;20399;-64
2024/04/21 10:00:32;;;;;;;3.90;3.30;;;10.20;96.90;;;;;;5455716;26;20449;-64
2024/04/21 10:03:01;;;;;;;3.70;3.40;;;10.20;96.70;;;;;;5456358;26;20398;-64
2024/04/21 10:05:33;;;;;;;4.20;3.70;;;10.30;96.50;;;;;;5455191;26;20438;-64
2024/04/21 10:08:01;;;;;;;3.50;3.20;;;10.40;96.30;;;;;;5456175;26;20485;-64
2024/04/21 10:10:32;;;;;;;3.87;3.57;;;10.40;96.20;;;;;;5454864;26;20783;-65
2024/04/21 10:13:02;;;;;;;3.80;3.50;;;10.50;96.20;;;;;;5456226;26;20430;-64
2024/04/21 10:15:34;;;;;;;4.30;3.40;;;10.50;96.30;;;;;;5456276;26;20431;-64
2024/04/21 10:18:02;;;;;;;4.00;3.30;;;10.60;96.20;;;;;;5423157;26;20513;-64
2024/04/21 10:20:33;;;;;;;3.93;3.00;;;10.70;96.30;;;;;;5454663;26;20453;-64
2024/04/21 10:23:02;;;;;;;3.13;2.57;;;10.80;96.30;;;;;;5456172;26;20423;-64
2024/04/21 10:25:34;;;;;;;3.10;2.60;;;10.80;95.90;;;;;;5453255;26;20437;-64
2024/04/21 10:28:06;;;;;;;3.27;2.87;;;10.90;95.80;;;;;;5456123;26;20813;-64
2024/04/21 10:30:37;;;;;;;3.90;2.63;;;11.00;95.70;;;;;;5456054;26;20445;-64
2024/04/21 10:33:09;;;;;;;2.87;2.33;;;11.00;95.40;;;;;;5455975;26;20398;-64
2024/04/21 10:35:41;;;;;;;2.90;2.57;;;11.10;95.20;;;;;;5454911;26;20862;-64
2024/04/21 10:38:10;;;;;;;3.50;3.20;;;11.00;94.60;;;;;;5423398;26;20449;-64
2024/04/21 10:40:41;;;;;;;2.70;2.30;;;11.00;94.40;;;;;;5454537;26;20449;-64
2024/04/21 10:43:12;;;;;;;7.33;2.60;;;11.00;94.20;;;;;;5454424;26;21026;-65
2024/04/21 10:45:42;;;;;;;3.90;2.97;;;11.00;94.20;;;;;;5456268;26;20398;-64
2024/04/21 10:48:10;;;;;;;3.00;2.70;;;10.90;94.00;;;;;;5455784;26;20398;-64
2024/04/21 10:50:41;;;;;;;2.90;2.60;;;10.90;93.80;;;;;;5454364;26;20555;-64
2024/04/21 10:53:09;;;;;;;2.90;2.63;;;10.90;93.90;;;;;;5422498;26;20994;-64
2024/04/21 10:55:39;;;;;;;2.60;2.40;;;10.90;94.10;;;;;;5422505;26;20461;-65
2024/04/21 10:58:06;;;;;;;3.50;2.93;;;10.90;93.90;;;;;;5454231;26;20434;-65
2024/04/21 11:00:39;;;;;;;3.07;2.77;;;10.90;93.90;;;;;;5453999;26;20570;-64
2024/04/21 11:03:07;;;;;;;3.17;2.87;;;10.90;94.00;;;;;;5455794;26;20406;-65
2024/04/21 11:05:46;;;;;;;3.23;2.63;;;10.90;93.80;;;;;;5454113;26;20441;-65
2024/04/21 11:08:13;;;;;;;3.10;2.50;;;10.90;93.30;;;;;;5454905;26;20545;-65
2024/04/21 11:10:44;;;;;;;3.20;2.20;;;10.90;93.30;;;;;;5453951;26;20567;-65
2024/04/21 11:13:12;;;;;;;3.37;3.07;;;10.90;93.20;;;;;;5455791;26;20492;-65
2024/04/21 11:15:45;;;;;;;5.20;3.00;;;11.00;93.30;;;;;;5422334;26;20465;-66
2024/04/21 11:18:13;;;;;;;3.90;2.53;;;11.00;93.40;;;;;;5422243;26;20501;-66
2024/04/21 11:20:43;;;;;;;2.77;2.33;;;11.10;93.00;;;;;;5421883;26;20478;-66
2024/04/21 11:23:14;;;;;;;2.93;2.47;;;11.20;92.70;;;;;;5453922;26;20437;-66
2024/04/21 11:25:46;;;;;;;2.73;2.27;;;11.20;92.80;;;;;;5455812;26;20402;-66
2024/04/21 11:28:16;;;;;;;3.37;2.70;;;11.20;92.60;;;;;;5455265;26;20406;-66
2024/04/21 11:30:49;;;;;;;3.03;2.73;;;11.10;92.60;;;;;;5453565;26;20457;-66
2024/04/21 11:33:17;;;;;;;3.43;2.80;;;11.10;92.60;;;;;;5421851;26;20458;-66
2024/04/21 11:35:47;;;;;;;3.37;2.90;;;11.00;92.60;;;;;;5452931;26;20434;-66
2024/04/21 11:38:15;;;;;;;4.27;2.67;;;11.00;92.60;;;;;;5454997;26;20438;-66
2024/04/21 11:40:45;;;;;;;3.57;2.80;;;11.00;92.30;;;;;;5453429;26;20506;-66
2024/04/21 11:43:12;;;;;;;2.90;2.70;;;11.00;92.20;;;;;;5453770;26;20498;-66
2024/04/21 11:45:44;;;;;;;2.53;2.33;;;10.90;92.30;;;;;;5453577;26;20437;-66
2024/04/21 11:48:14;;;;;;;2.67;2.37;;;11.00;92.40;;;;;;5453300;26;20775;-66
2024/04/21 11:50:44;;;;;;;3.27;2.50;;;11.00;92.30;;;;;;5453386;26;20528;-66
2024/04/21 11:53:12;;;;;;;3.27;2.50;;;11.00;92.40;;;;;;5421415;26;20897;-66
2024/04/21 11:55:41;;;;;;;2.73;2.30;;;11.00;92.30;;;;;;5421565;26;20540;-66
2024/04/21 11:58:09;;;;;;;3.30;2.37;;;11.00;92.20;;;;;;5453226;26;20992;-66
2024/04/21 12:00:39;;;;;;;4.63;2.30;;;11.10;92.30;;;;;;5452991;26;20671;-66
2024/04/21 12:03:06;;;;;;;2.53;2.33;;;11.10;92.20;;;;;;5453279;26;20501;-66
2024/04/21 12:05:39;;;;;;;3.33;2.50;;;11.10;91.90;;;;;;5453322;26;20509;-66
2024/04/21 12:08:07;;;;;;;2.90;2.60;;;11.00;91.80;;;;;;5453026;26;20783;-66
2024/04/21 12:10:37;;;;;;;3.50;2.47;;;11.00;91.50;;;;;;5452820;26;20518;-66
2024/04/21 12:13:04;;;;;;;2.70;2.10;;;11.00;91.70;;;;;;5454670;26;20402;-66
2024/04/21 12:15:35;;;;;;;3.20;2.37;;;11.20;91.90;;;;;;5421276;26;20449;-66
2024/04/21 12:18:06;;;;;;;3.90;2.20;;;11.30;92.00;;;;;;5421588;26;21046;-66
2024/04/21 12:20:39;;;;;;;3.27;2.50;;;11.30;92.00;;;;;;5452705;26;20509;-66
2024/04/21 12:23:08;;;;;;;2.60;2.30;;;11.40;91.60;;;;;;5453995;26;20426;-66
2024/04/21 12:25:38;;;;;;;3.47;2.60;;;11.40;91.40;;;;;;5452705;26;20506;-66
2024/04/21 12:28:06;;;;;;;2.50;2.20;;;11.30;91.30;;;;;;5454505;26;20402;-66
2024/04/21 12:30:38;;;;;;;2.50;2.30;;;11.30;91.30;;;;;;5452832;26;20559;-66
2024/04/21 12:33:10;;;;;;;4.10;2.67;;;11.30;91.20;;;;;;5454285;26;20398;-66
2024/04/21 12:35:44;;;;;;;4.13;2.80;;;11.20;91.20;;;;;;5452570;26;20498;-66
2024/04/21 12:38:12;;;;;;;3.30;2.10;;;11.20;91.10;;;;;;5420902;26;20493;-66
2024/04/21 12:40:42;;;;;;;2.90;2.30;;;11.20;91.10;;;;;;5452511;26;20445;-66
2024/04/21 12:43:10;;;;;;;3.47;2.00;;;11.10;91.10;;;;;;5453823;26;20422;-66
2024/04/21 12:45:40;;;;;;;2.77;2.50;;;11.10;91.10;;;;;;5420276;26;20498;-66
2024/04/21 12:48:07;;;;;;;3.47;2.47;;;11.10;91.00;;;;;;5452972;26;20442;-66
2024/04/21 12:50:37;;;;;;;3.70;2.30;;;11.10;91.10;;;;;;5455922;26;20449;-66
2024/04/21 12:53:07;;;;;;;2.57;2.20;;;11.10;91.00;;;;;;5424114;26;20438;-65
2024/04/21 12:55:38;;;;;;;4.10;2.80;;;11.20;90.90;;;;;;5455927;26;20441;-65
2024/04/21 12:58:06;;;;;;;3.20;2.80;;;11.30;90.80;;;;;;5456938;26;20492;-65
2024/04/21 13:00:37;;;;;;;3.13;2.80;;;11.40;90.90;;;;;;5455825;26;20497;-65
2024/04/21 13:03:05;;;;;;;3.10;2.30;;;11.40;90.90;;;;;;5424062;26;20465;-65
2024/04/21 13:05:36;;;;;;;3.00;2.67;;;11.50;90.60;;;;;;5455974;26;20486;-65